createdAt,value
2023-01-12T00:00:51.445Z,5.71
2023-01-12T00:03:17.656Z,5.71
2023-01-12T00:05:43.872Z,5.73
2023-01-12T00:08:10.080Z,5.82
2023-01-12T00:10:36.298Z,5.86
2023-01-12T00:13:02.491Z,5.85
2023-01-12T00:15:28.699Z,5.92
2023-01-12T00:17:54.895Z,5.92
2023-01-12T00:20:21.103Z,5.98
2023-01-12T00:22:47.657Z,5.97
2023-01-12T00:25:13.863Z,5.92
2023-01-12T00:27:40.067Z,5.96
2023-01-12T00:30:06.593Z,5.98
2023-01-12T00:32:32.785Z,6.01
2023-01-12T00:34:59.011Z,5.95
2023-01-12T00:37:25.218Z,5.93
2023-01-12T00:40:01.866Z,5.94
2023-01-12T00:42:28.925Z,5.96
2023-01-12T00:44:55.125Z,6.00
2023-01-12T00:47:21.331Z,5.98
2023-01-12T00:49:47.573Z,6.07
2023-01-12T00:52:24.940Z,6.05
2023-01-12T00:54:55.701Z,6.07
2023-01-12T00:57:21.897Z,6.06
2023-01-12T00:59:48.105Z,6.13
2023-01-12T01:02:14.409Z,6.25
2023-01-12T01:04:40.713Z,6.19
2023-01-12T01:07:06.919Z,6.22
2023-01-12T01:09:33.159Z,6.20
2023-01-12T01:11:59.355Z,6.21
2023-01-12T01:14:25.563Z,6.25
2023-01-12T01:16:51.779Z,6.25
2023-01-12T01:19:17.973Z,6.21
2023-01-12T01:21:44.186Z,6.22
2023-01-12T01:24:10.979Z,6.22
2023-01-12T01:26:37.191Z,6.25
2023-01-12T01:29:03.391Z,6.23
2023-01-12T01:31:29.679Z,6.26
2023-01-12T01:33:55.901Z,6.29
2023-01-12T01:36:22.124Z,6.35
2023-01-12T01:38:48.557Z,6.35
2023-01-12T01:41:17.509Z,6.35
2023-01-12T01:44:03.935Z,6.29
2023-01-12T01:46:33.310Z,6.27
2023-01-12T01:49:01.788Z,6.23
2023-01-12T01:51:28.002Z,6.41
2023-01-12T01:53:54.210Z,6.49
2023-01-12T01:56:22.230Z,6.45
2023-01-12T01:58:56.042Z,6.43
2023-01-12T02:01:22.334Z,6.39
2023-01-12T02:03:48.646Z,6.43
2023-01-12T02:06:14.865Z,6.44
2023-01-12T02:08:43.347Z,6.46
2023-01-12T02:11:09.564Z,6.43
2023-01-12T02:13:35.782Z,6.49
2023-01-12T02:16:02.790Z,6.55
2023-01-12T02:18:34.067Z,6.58
2023-01-12T02:21:10.102Z,6.63
2023-01-12T02:23:59.341Z,6.54
2023-01-12T02:26:38.579Z,6.59
2023-01-12T02:29:13.174Z,6.57
2023-01-12T02:31:43.256Z,6.60
2023-01-12T02:34:28.428Z,6.59
2023-01-12T02:36:56.956Z,6.58
2023-01-12T02:39:27.846Z,6.52
2023-01-12T02:41:57.006Z,6.54
2023-01-12T02:44:26.868Z,6.43
2023-01-12T02:46:53.197Z,6.50
2023-01-12T02:49:20.593Z,6.57
2023-01-12T02:51:49.131Z,6.53
2023-01-12T02:54:16.088Z,6.60
2023-01-12T02:56:42.263Z,6.61
2023-01-12T02:59:09.439Z,6.69
2023-01-12T03:01:35.674Z,6.68
2023-01-12T03:04:02.831Z,6.72
2023-01-12T03:06:42.016Z,6.80
2023-01-12T03:09:08.220Z,6.79
2023-01-12T03:11:34.693Z,6.80
2023-01-12T03:14:00.950Z,6.75
2023-01-12T03:16:28.352Z,6.78
2023-01-12T03:19:01.713Z,6.82
2023-01-12T03:21:41.303Z,6.77
2023-01-12T03:24:08.555Z,6.81
2023-01-12T03:26:35.531Z,6.77
2023-01-12T03:29:09.782Z,6.86
2023-01-12T03:31:36.359Z,6.77
2023-01-12T03:34:02.583Z,6.79
2023-01-12T03:36:31.824Z,6.76
2023-01-12T03:39:02.431Z,6.75
2023-01-12T03:41:37.507Z,6.76
2023-01-12T03:44:04.734Z,6.71
2023-01-12T03:46:36.187Z,6.75
2023-01-12T03:49:11.290Z,6.75
2023-01-12T03:51:39.178Z,6.80
2023-01-12T03:54:05.461Z,6.80
2023-01-12T03:56:31.860Z,6.76
2023-01-12T03:58:58.064Z,6.77
2023-01-12T04:01:24.340Z,6.75
2023-01-12T04:03:50.557Z,6.76
2023-01-12T04:06:16.760Z,6.77
2023-01-12T04:08:42.980Z,6.83
2023-01-12T04:11:09.182Z,6.81
2023-01-12T04:13:35.400Z,6.87
2023-01-12T04:16:01.623Z,6.85
2023-01-12T04:18:27.855Z,6.91
2023-01-12T04:20:54.072Z,6.96
2023-01-12T04:23:20.290Z,6.89
2023-01-12T04:25:46.481Z,6.90
2023-01-12T04:28:12.697Z,6.92
2023-01-12T04:30:38.899Z,6.94
2023-01-12T04:33:08.218Z,6.94
2023-01-12T04:35:34.490Z,6.90
2023-01-12T04:38:04.701Z,6.83
2023-01-12T04:40:30.902Z,6.80
2023-01-12T04:42:57.126Z,6.74
2023-01-12T04:45:23.328Z,6.65
2023-01-12T04:47:49.530Z,6.57
2023-01-12T04:50:15.741Z,6.59
2023-01-12T04:52:41.941Z,6.47
2023-01-12T04:55:08.344Z,6.50
2023-01-12T04:57:34.892Z,6.47
2023-01-12T05:00:01.097Z,6.48
2023-01-12T05:02:27.504Z,6.47
2023-01-12T05:04:53.714Z,6.42
2023-01-12T05:07:19.910Z,6.46
2023-01-12T05:09:46.123Z,6.47
2023-01-12T05:12:12.315Z,6.45
2023-01-12T05:14:38.544Z,6.51
2023-01-12T05:17:04.835Z,6.49
2023-01-12T05:19:31.037Z,6.60
2023-01-12T05:21:57.244Z,6.66
2023-01-12T05:24:23.445Z,6.63
2023-01-12T05:26:49.647Z,6.67
2023-01-12T05:29:15.867Z,6.70
2023-01-12T05:31:42.080Z,6.68
2023-01-12T05:34:08.285Z,6.77
2023-01-12T05:36:34.516Z,6.80
2023-01-12T05:39:00.726Z,6.85
2023-01-12T05:41:26.945Z,6.84
2023-01-12T05:43:53.273Z,6.87
2023-01-12T05:46:39.740Z,6.88
2023-01-12T05:49:05.945Z,6.88
2023-01-12T05:51:32.166Z,6.88
2023-01-12T05:53:58.416Z,6.93
2023-01-12T05:56:25.243Z,6.95
2023-01-12T05:58:51.428Z,7.02
2023-01-12T06:01:17.806Z,6.95
2023-01-12T06:03:44.190Z,6.91
2023-01-12T06:06:10.419Z,6.95
2023-01-12T06:08:36.619Z,6.84
2023-01-12T06:11:03.197Z,6.80
2023-01-12T06:13:29.398Z,6.92
2023-01-12T06:15:59.893Z,6.90
2023-01-12T06:18:26.112Z,6.97
2023-01-12T06:20:52.394Z,6.85
2023-01-12T06:23:18.613Z,6.86
2023-01-12T06:25:44.830Z,6.86
2023-01-12T06:28:11.035Z,6.89
2023-01-12T06:30:37.251Z,6.96
2023-01-12T06:33:03.463Z,6.95
2023-01-12T06:35:29.693Z,7.01
2023-01-12T06:37:56.665Z,6.94
2023-01-12T06:40:22.876Z,6.95
2023-01-12T06:42:49.086Z,6.97
2023-01-12T06:45:15.314Z,6.98
2023-01-12T06:47:43.767Z,6.98
2023-01-12T06:50:10.444Z,7.01
2023-01-12T06:52:36.639Z,7.02
2023-01-12T06:55:02.923Z,7.05
2023-01-12T06:57:29.137Z,7.02
2023-01-12T06:59:55.347Z,6.98
2023-01-12T07:02:21.556Z,7.02
2023-01-12T07:04:47.833Z,7.07
2023-01-12T07:07:14.085Z,7.06
2023-01-12T07:09:40.294Z,7.05
2023-01-12T07:12:06.536Z,7.07
2023-01-12T07:14:32.791Z,7.10
2023-01-12T07:16:58.998Z,7.15
2023-01-12T07:19:25.202Z,7.16
2023-01-12T07:21:51.457Z,7.13
2023-01-12T07:24:17.668Z,7.15
2023-01-12T07:26:43.897Z,7.15
2023-01-12T07:29:10.088Z,7.17
2023-01-12T07:31:36.297Z,7.19
2023-01-12T07:34:02.508Z,7.22
2023-01-12T07:36:28.735Z,7.19
2023-01-12T07:38:55.178Z,7.23
2023-01-12T07:41:21.447Z,7.25
2023-01-12T07:43:47.678Z,7.27
2023-01-12T07:46:13.953Z,7.28
2023-01-12T07:48:40.175Z,7.24
2023-01-12T07:51:06.387Z,7.29
2023-01-12T07:53:32.600Z,7.29
2023-01-12T07:55:58.873Z,7.31
2023-01-12T07:58:25.111Z,7.34
2023-01-12T08:00:51.513Z,7.32
2023-01-12T08:03:17.780Z,7.30
2023-01-12T08:05:44.113Z,7.37
2023-01-12T08:08:10.405Z,7.35
2023-01-12T08:10:36.639Z,7.33
2023-01-12T08:13:02.852Z,7.39
2023-01-12T08:15:30.337Z,7.41
2023-01-12T08:18:01.327Z,7.45
2023-01-12T08:20:32.144Z,7.44
2023-01-12T08:22:58.819Z,7.46
2023-01-12T08:25:25.404Z,7.44
2023-01-12T08:27:51.771Z,7.46
2023-01-12T08:30:18.484Z,7.48
2023-01-12T08:32:44.698Z,7.50
2023-01-12T08:35:11.153Z,7.49
2023-01-12T08:37:37.372Z,7.52
2023-01-12T08:40:04.153Z,7.56
2023-01-12T08:42:31.910Z,7.59
2023-01-12T08:44:58.270Z,7.54
2023-01-12T08:47:25.144Z,7.52
2023-01-12T08:49:51.531Z,7.51
2023-01-12T08:52:18.138Z,7.60
2023-01-12T08:54:44.508Z,7.55
2023-01-12T08:57:10.811Z,7.53
2023-01-12T08:59:37.029Z,7.53
2023-01-12T09:02:03.363Z,7.59
2023-01-12T09:04:29.627Z,7.61
2023-01-12T09:06:55.859Z,7.63
2023-01-12T09:09:22.067Z,7.64
2023-01-12T09:11:48.434Z,7.60
2023-01-12T09:14:14.799Z,7.71
2023-01-12T09:16:41.068Z,7.72
2023-01-12T09:19:07.472Z,7.75
2023-01-12T09:21:35.488Z,7.84
2023-01-12T09:24:01.704Z,7.84
2023-01-12T09:26:28.475Z,7.82
2023-01-12T09:28:54.705Z,7.84
2023-01-12T09:31:21.680Z,7.81
2023-01-12T09:33:47.942Z,7.83
2023-01-12T09:36:14.946Z,7.83
2023-01-12T09:38:41.580Z,7.91
2023-01-12T09:41:26.536Z,7.92
2023-01-12T09:43:52.747Z,7.94
2023-01-12T09:46:22.760Z,7.98
2023-01-12T09:48:48.995Z,8.02
2023-01-12T09:51:24.859Z,8.00
2023-01-12T09:53:51.067Z,8.01
2023-01-12T09:56:37.544Z,7.97
2023-01-12T09:59:12.651Z,8.01
2023-01-12T10:01:38.886Z,7.99
2023-01-12T10:04:05.147Z,7.96
2023-01-12T10:06:31.414Z,7.97
2023-01-12T10:08:57.858Z,7.96
2023-01-12T10:11:40.057Z,7.98
2023-01-12T10:14:06.230Z,8.01
2023-01-12T10:16:47.790Z,7.96
2023-01-12T10:19:25.014Z,7.96
2023-01-12T10:21:51.754Z,7.99
2023-01-12T10:24:18.005Z,7.97
2023-01-12T10:26:44.205Z,7.98
2023-01-12T10:29:10.465Z,8.00
2023-01-12T10:31:36.698Z,8.01
2023-01-12T10:34:03.683Z,8.05
2023-01-12T10:36:29.892Z,7.98
2023-01-12T10:38:56.811Z,7.95
2023-01-12T10:41:26.783Z,7.99
2023-01-12T10:43:55.971Z,8.02
2023-01-12T10:46:22.517Z,8.00
2023-01-12T10:48:49.305Z,7.99
2023-01-12T10:51:22.846Z,7.99
2023-01-12T10:53:59.737Z,8.01
2023-01-12T10:56:33.150Z,8.05
2023-01-12T10:59:00.627Z,8.09
2023-01-12T11:01:41.517Z,8.08
2023-01-12T11:04:10.141Z,8.07
2023-01-12T11:06:36.415Z,8.04
2023-01-12T11:09:16.651Z,8.09
2023-01-12T11:11:42.875Z,8.15
2023-01-12T11:14:19.471Z,8.17
2023-01-12T11:16:48.714Z,8.18
2023-01-12T11:19:29.416Z,8.20
2023-01-12T11:22:02.782Z,8.28
2023-01-12T11:24:40.988Z,8.28
2023-01-12T11:27:10.827Z,8.30
2023-01-12T11:29:55.378Z,8.29
2023-01-12T11:32:27.041Z,8.34
2023-01-12T11:35:08.476Z,8.40
2023-01-12T11:37:34.776Z,8.48
2023-01-12T11:40:03.321Z,8.47
2023-01-12T11:42:29.794Z,8.51
2023-01-12T11:45:15.522Z,8.50
2023-01-12T11:47:47.495Z,8.59
2023-01-12T11:50:14.834Z,8.66
2023-01-12T11:52:41.045Z,8.69
2023-01-12T11:55:09.163Z,8.71
2023-01-12T11:57:54.079Z,8.76
2023-01-12T12:00:40.407Z,8.77
2023-01-12T12:03:15.080Z,8.76
2023-01-12T12:05:47.434Z,8.81
2023-01-12T12:08:16.656Z,8.79
2023-01-12T12:10:47.871Z,8.81
2023-01-12T12:13:23.031Z,8.81
2023-01-12T12:16:08.011Z,8.86
2023-01-12T12:18:54.553Z,8.82
2023-01-12T12:21:30.065Z,8.88
2023-01-12T12:24:01.913Z,8.92
2023-01-12T12:26:28.096Z,8.98
2023-01-12T12:28:57.156Z,8.95
2023-01-12T12:31:32.860Z,9.03
2023-01-12T12:34:15.752Z,9.18
2023-01-12T12:36:44.970Z,9.27
2023-01-12T12:39:24.823Z,9.22
2023-01-12T12:42:03.979Z,9.19
2023-01-12T12:44:34.641Z,9.20
2023-01-12T12:47:04.484Z,9.24
2023-01-12T12:49:30.819Z,9.22
2023-01-12T12:51:57.033Z,9.19
2023-01-12T12:54:23.450Z,9.23
2023-01-12T12:56:49.678Z,9.22
2023-01-12T12:59:31.132Z,9.21
2023-01-12T13:01:58.091Z,9.22
2023-01-12T13:04:42.559Z,9.26
2023-01-12T13:07:11.905Z,9.26
2023-01-12T13:09:38.134Z,9.27
2023-01-12T13:12:04.311Z,9.27
2023-01-12T13:14:31.423Z,9.28
2023-01-12T13:17:16.408Z,9.23
2023-01-12T13:19:43.219Z,9.25
2023-01-12T13:22:29.148Z,9.22
2023-01-12T13:24:55.782Z,9.27
2023-01-12T13:27:40.753Z,9.30
2023-01-12T13:30:25.538Z,9.31
2023-01-12T13:32:54.454Z,9.34
2023-01-12T13:35:32.684Z,9.33
2023-01-12T13:38:11.839Z,9.39
2023-01-12T13:40:38.064Z,9.36
2023-01-12T13:43:04.757Z,9.37
2023-01-12T13:45:31.019Z,9.36
2023-01-12T13:47:57.232Z,9.38
2023-01-12T13:50:24.313Z,9.37
2023-01-12T13:52:57.107Z,9.36
2023-01-12T13:55:24.188Z,9.36
2023-01-12T13:58:02.536Z,9.38
2023-01-12T14:00:29.227Z,9.37
2023-01-12T14:02:55.540Z,9.41
2023-01-12T14:05:24.316Z,9.38
2023-01-12T14:07:52.512Z,9.42
2023-01-12T14:10:27.591Z,9.45
2023-01-12T14:13:16.331Z,9.44
2023-01-12T14:15:42.682Z,9.46
2023-01-12T14:18:10.768Z,9.50
2023-01-12T14:20:40.779Z,9.51
2023-01-12T14:23:20.456Z,9.49
2023-01-12T14:25:47.030Z,9.56
2023-01-12T14:28:17.031Z,9.59
2023-01-12T14:30:50.702Z,9.58
2023-01-12T14:33:17.370Z,9.54
2023-01-12T14:35:44.156Z,9.57
2023-01-12T14:38:11.089Z,9.60
2023-01-12T14:40:37.317Z,9.63
2023-01-12T14:43:03.518Z,9.64
2023-01-12T14:45:29.782Z,9.64
2023-01-12T14:47:56.030Z,9.61
2023-01-12T14:50:22.336Z,9.59
2023-01-12T14:52:48.551Z,9.62
2023-01-12T14:55:18.523Z,9.62
2023-01-12T14:57:48.999Z,9.56
2023-01-12T15:00:21.941Z,9.52
2023-01-12T15:02:51.516Z,9.53
2023-01-12T15:05:19.008Z,9.55
2023-01-12T15:07:55.548Z,9.58
2023-01-12T15:10:32.217Z,9.54
2023-01-12T15:13:17.328Z,9.60
2023-01-12T15:15:43.739Z,9.65
2023-01-12T15:18:09.972Z,9.64
2023-01-12T15:20:37.771Z,9.62
2023-01-12T15:23:08.093Z,9.62
2023-01-12T15:25:34.322Z,9.62
2023-01-12T15:28:00.715Z,9.58
2023-01-12T15:30:26.937Z,9.58
2023-01-12T15:32:53.150Z,9.58
2023-01-12T15:35:21.868Z,9.58
2023-01-12T15:37:48.124Z,9.54
2023-01-12T15:40:14.367Z,9.52
2023-01-12T15:49:32.353Z,9.47
2023-01-12T15:52:27.977Z,9.47
2023-01-12T15:57:37.458Z,9.43
2023-01-12T16:00:18.262Z,9.42
2023-01-12T16:02:49.482Z,9.45
2023-01-12T16:05:18.059Z,9.45
2023-01-12T16:07:48.760Z,9.51
2023-01-12T16:10:15.397Z,9.49
2023-01-12T16:12:41.716Z,9.44
2023-01-12T16:15:13.933Z,9.43
2023-01-12T16:17:40.297Z,9.44
2023-01-12T16:20:06.937Z,9.44
2023-01-12T16:22:33.903Z,9.46
2023-01-12T16:25:00.136Z,9.42
2023-01-12T16:27:26.415Z,9.37
2023-01-12T16:29:53.267Z,9.37
2023-01-12T16:35:29.001Z,9.38
2023-01-12T16:38:09.019Z,9.35
2023-01-12T16:40:35.295Z,9.36
2023-01-12T16:43:07.056Z,9.38
2023-01-12T16:45:33.331Z,9.37
2023-01-12T16:47:59.597Z,9.39
2023-01-12T16:50:40.656Z,9.39
2023-01-12T16:53:11.206Z,9.35
2023-01-12T16:55:58.208Z,9.34
2023-01-12T16:58:24.482Z,9.30
2023-01-12T17:01:12.311Z,9.30
2023-01-12T17:03:49.934Z,9.27
2023-01-12T17:06:27.047Z,9.27
2023-01-12T17:08:56.097Z,9.20
2023-01-12T17:11:24.833Z,9.16
2023-01-12T17:14:04.426Z,9.21
2023-01-12T17:16:35.826Z,9.18
2023-01-12T17:22:31.427Z,9.07
2023-01-12T17:28:02.492Z,9.06
2023-01-12T17:33:38.459Z,9.04
2023-01-12T17:33:59.693Z,9.06
2023-01-12T17:36:05.371Z,9.06
2023-01-12T17:44:51.435Z,9.07
2023-01-12T17:47:17.664Z,9.07
2023-01-12T17:49:43.889Z,9.06
2023-01-12T17:52:10.111Z,9.08
2023-01-12T17:54:36.314Z,9.09
2023-01-12T17:57:02.529Z,9.06
2023-01-12T17:59:28.769Z,9.08
2023-01-12T18:01:55.238Z,9.13
2023-01-12T18:04:21.541Z,9.13
2023-01-12T18:06:47.763Z,9.15
2023-01-12T18:09:13.995Z,9.08
2023-01-12T18:11:40.256Z,9.11
2023-01-12T18:14:07.771Z,9.10
2023-01-12T18:16:34.060Z,9.10
2023-01-12T18:19:01.556Z,9.14
2023-01-12T18:21:27.786Z,9.18
2023-01-12T18:23:54.089Z,9.24
2023-01-12T18:26:21.435Z,9.28
2023-01-12T18:28:47.664Z,9.28
2023-01-12T18:31:14.771Z,9.37
2023-01-12T18:33:41.263Z,9.43
2023-01-12T18:36:08.360Z,9.46
2023-01-12T18:38:34.562Z,9.49
2023-01-12T18:41:03.512Z,9.56
2023-01-12T18:43:29.717Z,9.51
2023-01-12T18:45:55.911Z,9.54
2023-01-12T18:48:22.125Z,9.58
2023-01-12T18:50:51.850Z,9.58
2023-01-12T18:53:18.146Z,9.57
2023-01-12T18:55:44.363Z,9.67
2023-01-12T18:58:10.622Z,9.70
2023-01-12T19:00:36.856Z,9.70
2023-01-12T19:03:03.096Z,9.80
2023-01-12T19:05:29.381Z,9.73
2023-01-12T19:07:55.608Z,9.78
2023-01-12T19:10:21.809Z,9.77
2023-01-12T19:12:48.017Z,9.81
2023-01-12T19:15:14.237Z,9.88
2023-01-12T19:17:41.974Z,9.81
2023-01-12T19:20:09.243Z,9.77
2023-01-12T19:22:35.432Z,9.76
2023-01-12T19:25:01.742Z,9.79
2023-01-12T19:27:27.955Z,9.79
2023-01-12T19:29:54.173Z,9.89
2023-01-12T19:32:20.383Z,9.85
2023-01-12T19:34:46.595Z,9.84
2023-01-12T19:37:12.797Z,9.89
2023-01-12T19:39:40.591Z,9.89
2023-01-12T19:42:08.353Z,9.89
2023-01-12T19:44:34.588Z,9.88
2023-01-12T19:47:00.787Z,9.94
2023-01-12T19:49:27.010Z,9.94
2023-01-12T19:51:53.209Z,9.90
2023-01-12T19:54:19.444Z,9.90
2023-01-12T19:56:46.251Z,9.94
2023-01-12T19:59:12.467Z,9.92
2023-01-12T20:01:38.799Z,9.94
2023-01-12T20:04:05.071Z,9.88
2023-01-12T20:06:31.321Z,9.91
2023-01-12T20:08:57.568Z,9.84
2023-01-12T20:11:23.774Z,9.96
2023-01-12T20:13:49.978Z,9.96
2023-01-12T20:16:16.247Z,9.92
2023-01-12T20:18:42.474Z,9.86
2023-01-12T20:21:09.297Z,9.98
2023-01-12T20:23:35.517Z,9.89
2023-01-12T20:26:01.780Z,9.86
2023-01-12T20:28:27.992Z,9.88
2023-01-12T20:30:54.207Z,9.87
2023-01-12T20:33:20.414Z,9.84
2023-01-12T20:35:46.699Z,9.87
2023-01-12T20:38:12.917Z,9.91
2023-01-12T20:40:39.133Z,9.93
2023-01-12T20:43:05.335Z,9.95
2023-01-12T20:45:31.553Z,9.99
2023-01-12T20:47:57.756Z,9.95
2023-01-12T20:50:23.977Z,9.90
2023-01-12T20:52:50.201Z,9.90
2023-01-12T20:55:16.396Z,9.95
2023-01-12T20:57:42.637Z,9.95
2023-01-12T21:00:09.125Z,9.92
2023-01-12T21:02:35.336Z,9.94
2023-01-12T21:05:01.595Z,9.93
2023-01-12T21:07:27.798Z,9.92
2023-01-12T21:09:54.005Z,9.89
2023-01-12T21:12:20.224Z,9.93
2023-01-12T21:14:46.422Z,9.88
2023-01-12T21:17:12.637Z,9.85
2023-01-12T21:19:38.836Z,9.89
2023-01-12T21:22:05.059Z,9.82
2023-01-12T21:24:31.266Z,9.89
2023-01-12T21:26:57.483Z,9.85
2023-01-12T21:29:23.693Z,9.84
2023-01-12T21:31:49.942Z,9.84
2023-01-12T21:34:16.183Z,9.88
2023-01-12T21:36:42.412Z,9.83
2023-01-12T21:39:08.613Z,9.88
2023-01-12T21:41:34.842Z,9.90
2023-01-12T21:44:02.868Z,9.88
2023-01-12T21:46:29.244Z,9.83
2023-01-12T21:48:55.452Z,9.85
2023-01-12T21:51:21.669Z,9.93
2023-01-12T21:53:47.862Z,9.90
2023-01-12T21:56:14.079Z,9.87
2023-01-12T21:58:40.311Z,9.84
2023-01-12T22:01:10.110Z,9.87
2023-01-12T22:03:36.420Z,9.85
2023-01-12T22:06:06.440Z,9.88
2023-01-12T22:08:33.299Z,9.89
2023-01-12T22:11:03.846Z,9.83
2023-01-12T22:13:30.053Z,9.86
2023-01-12T22:15:56.259Z,9.84
2023-01-12T22:18:22.478Z,9.85
2023-01-12T22:20:48.683Z,9.85
2023-01-12T22:23:14.899Z,9.83
2023-01-12T22:25:41.089Z,9.84
2023-01-12T22:28:07.290Z,9.85
2023-01-12T22:30:33.497Z,9.82
2023-01-12T22:32:59.707Z,9.83
2023-01-12T22:35:25.903Z,9.81
2023-01-12T22:37:52.121Z,9.81
2023-01-12T22:40:18.333Z,9.83
2023-01-12T22:42:44.541Z,9.79
2023-01-12T22:45:10.820Z,9.76
2023-01-12T22:47:47.530Z,9.79
2023-01-12T22:50:14.507Z,9.74
2023-01-12T22:52:40.723Z,9.78
2023-01-12T22:55:07.026Z,9.79
2023-01-12T22:57:33.234Z,9.76
2023-01-12T22:59:59.444Z,9.71
2023-01-12T23:02:25.830Z,9.73
2023-01-12T23:04:52.218Z,9.72
2023-01-12T23:07:18.548Z,9.70
2023-01-12T23:09:45.400Z,9.74
2023-01-12T23:12:11.763Z,9.72
2023-01-12T23:14:38.082Z,9.74
2023-01-12T23:17:04.427Z,9.75
2023-01-12T23:19:30.734Z,9.75
2023-01-12T23:21:57.063Z,9.78
2023-01-12T23:24:23.372Z,9.75
2023-01-12T23:26:49.704Z,9.76
2023-01-12T23:29:16.034Z,9.82
2023-01-12T23:31:42.361Z,9.78
2023-01-12T23:34:08.776Z,9.77
2023-01-12T23:36:35.095Z,9.75
2023-01-12T23:39:02.162Z,9.72
2023-01-12T23:41:29.154Z,9.72
2023-01-12T23:43:56.413Z,9.73
2023-01-12T23:46:22.844Z,9.69
2023-01-12T23:48:52.551Z,9.72
2023-01-12T23:51:18.884Z,9.76
2023-01-12T23:53:50.700Z,9.72
2023-01-12T23:56:17.018Z,9.78
2023-01-12T23:58:43.422Z,9.77
